sensor_id;sensor_type;location;lat;lon;timestamp;P1;durP1;ratioP1;P2;durP2;ratioP2
572;SDS011;271;51.114;13.780;2023-04-29T00:01:19;33.90;;;17.37;;
572;SDS011;271;51.114;13.780;2023-04-29T00:04:06;29.17;;;15.33;;
572;SDS011;271;51.114;13.780;2023-04-29T00:06:54;31.60;;;17.33;;
572;SDS011;271;51.114;13.780;2023-04-29T00:09:42;34.13;;;18.40;;
572;SDS011;271;51.114;13.780;2023-04-29T00:12:31;32.77;;;16.07;;
572;SDS011;271;51.114;13.780;2023-04-29T00:15:18;32.50;;;16.70;;
572;SDS011;271;51.114;13.780;2023-04-29T00:18:06;35.97;;;18.10;;
572;SDS011;271;51.114;13.780;2023-04-29T00:20:55;33.40;;;18.47;;
572;SDS011;271;51.114;13.780;2023-04-29T00:23:42;36.73;;;20.80;;
572;SDS011;271;51.114;13.780;2023-04-29T00:26:30;36.40;;;19.33;;
572;SDS011;271;51.114;13.780;2023-04-29T00:29:19;31.23;;;16.60;;
572;SDS011;271;51.114;13.780;2023-04-29T00:32:08;33.17;;;19.20;;
572;SDS011;271;51.114;13.780;2023-04-29T00:34:56;35.80;;;18.10;;
572;SDS011;271;51.114;13.780;2023-04-29T00:37:43;33.37;;;18.60;;
572;SDS011;271;51.114;13.780;2023-04-29T00:40:31;34.43;;;17.00;;
572;SDS011;271;51.114;13.780;2023-04-29T00:43:19;32.30;;;16.30;;
572;SDS011;271;51.114;13.780;2023-04-29T00:46:08;30.80;;;15.80;;
572;SDS011;271;51.114;13.780;2023-04-29T00:48:56;33.60;;;15.77;;
572;SDS011;271;51.114;13.780;2023-04-29T00:51:44;34.30;;;16.90;;
572;SDS011;271;51.114;13.780;2023-04-29T00:54:32;32.20;;;15.77;;
572;SDS011;271;51.114;13.780;2023-04-29T00:57:20;32.33;;;16.20;;
572;SDS011;271;51.114;13.780;2023-04-29T01:00:09;32.77;;;15.40;;
572;SDS011;271;51.114;13.780;2023-04-29T01:03:00;31.27;;;16.70;;
572;SDS011;271;51.114;13.780;2023-04-29T01:05:49;33.83;;;16.37;;
572;SDS011;271;51.114;13.780;2023-04-29T01:08:49;31.93;;;16.43;;
572;SDS011;271;51.114;13.780;2023-04-29T01:11:52;30.90;;;14.60;;
572;SDS011;271;51.114;13.780;2023-04-29T01:15:03;31.10;;;14.73;;
572;SDS011;271;51.114;13.780;2023-04-29T01:17:58;34.67;;;17.10;;
572;SDS011;271;51.114;13.780;2023-04-29T01:20:51;32.83;;;16.47;;
572;SDS011;271;51.114;13.780;2023-04-29T01:23:40;33.33;;;17.30;;
572;SDS011;271;51.114;13.780;2023-04-29T01:26:29;33.63;;;16.70;;
572;SDS011;271;51.114;13.780;2023-04-29T01:29:21;30.30;;;15.33;;
572;SDS011;271;51.114;13.780;2023-04-29T01:32:15;34.90;;;16.10;;
572;SDS011;271;51.114;13.780;2023-04-29T01:35:13;29.73;;;14.63;;
572;SDS011;271;51.114;13.780;2023-04-29T01:38:15;34.73;;;16.27;;
572;SDS011;271;51.114;13.780;2023-04-29T01:41:17;31.40;;;15.70;;
572;SDS011;271;51.114;13.780;2023-04-29T01:44:12;33.73;;;17.83;;
572;SDS011;271;51.114;13.780;2023-04-29T01:47:02;34.67;;;18.87;;
572;SDS011;271;51.114;13.780;2023-04-29T01:49:52;33.70;;;17.67;;
572;SDS011;271;51.114;13.780;2023-04-29T01:52:39;38.63;;;19.80;;
572;SDS011;271;51.114;13.780;2023-04-29T01:55:27;38.10;;;19.67;;
572;SDS011;271;51.114;13.780;2023-04-29T01:58:16;38.13;;;20.93;;
572;SDS011;271;51.114;13.780;2023-04-29T02:01:04;39.17;;;21.17;;
572;SDS011;271;51.114;13.780;2023-04-29T02:03:52;41.53;;;20.33;;
572;SDS011;271;51.114;13.780;2023-04-29T02:06:39;46.23;;;21.93;;
572;SDS011;271;51.114;13.780;2023-04-29T02:09:27;41.37;;;22.77;;
572;SDS011;271;51.114;13.780;2023-04-29T02:12:15;45.73;;;24.00;;
572;SDS011;271;51.114;13.780;2023-04-29T02:15:04;46.10;;;23.20;;
572;SDS011;271;51.114;13.780;2023-04-29T02:17:53;46.43;;;25.40;;
572;SDS011;271;51.114;13.780;2023-04-29T02:20:41;48.60;;;24.83;;
572;SDS011;271;51.114;13.780;2023-04-29T02:23:29;46.03;;;22.80;;
572;SDS011;271;51.114;13.780;2023-04-29T02:26:17;45.90;;;22.60;;
572;SDS011;271;51.114;13.780;2023-04-29T02:29:05;40.80;;;21.40;;
572;SDS011;271;51.114;13.780;2023-04-29T02:31:54;41.73;;;21.73;;
572;SDS011;271;51.114;13.780;2023-04-29T02:34:42;37.37;;;19.60;;
572;SDS011;271;51.114;13.780;2023-04-29T02:37:30;36.97;;;19.07;;
572;SDS011;271;51.114;13.780;2023-04-29T02:40:17;44.67;;;22.60;;
572;SDS011;271;51.114;13.780;2023-04-29T02:43:05;42.27;;;19.77;;
572;SDS011;271;51.114;13.780;2023-04-29T02:45:54;38.07;;;19.33;;
572;SDS011;271;51.114;13.780;2023-04-29T02:48:43;40.70;;;20.37;;
572;SDS011;271;51.114;13.780;2023-04-29T02:51:31;41.40;;;20.53;;
572;SDS011;271;51.114;13.780;2023-04-29T02:54:19;41.50;;;22.77;;
572;SDS011;271;51.114;13.780;2023-04-29T02:57:06;40.63;;;21.50;;
572;SDS011;271;51.114;13.780;2023-04-29T02:59:54;35.60;;;19.73;;
572;SDS011;271;51.114;13.780;2023-04-29T03:02:42;40.60;;;20.67;;
572;SDS011;271;51.114;13.780;2023-04-29T03:05:31;40.37;;;19.97;;
572;SDS011;271;51.114;13.780;2023-04-29T03:08:19;38.20;;;19.47;;
572;SDS011;271;51.114;13.780;2023-04-29T03:11:07;40.20;;;20.93;;
572;SDS011;271;51.114;13.780;2023-04-29T03:13:55;39.23;;;20.30;;
572;SDS011;271;51.114;13.780;2023-04-29T03:16:42;40.67;;;21.67;;
572;SDS011;271;51.114;13.780;2023-04-29T03:19:30;36.83;;;19.87;;
572;SDS011;271;51.114;13.780;2023-04-29T03:22:19;39.60;;;19.77;;
572;SDS011;271;51.114;13.780;2023-04-29T03:25:07;34.57;;;18.20;;
572;SDS011;271;51.114;13.780;2023-04-29T03:27:55;36.20;;;19.53;;
572;SDS011;271;51.114;13.780;2023-04-29T03:30:43;37.23;;;18.93;;
572;SDS011;271;51.114;13.780;2023-04-29T03:33:31;36.83;;;16.60;;
572;SDS011;271;51.114;13.780;2023-04-29T03:36:18;37.93;;;18.77;;
572;SDS011;271;51.114;13.780;2023-04-29T03:39:07;31.97;;;15.87;;
572;SDS011;271;51.114;13.780;2023-04-29T03:41:56;30.87;;;14.33;;
572;SDS011;271;51.114;13.780;2023-04-29T03:44:44;33.33;;;15.10;;
572;SDS011;271;51.114;13.780;2023-04-29T03:47:32;31.13;;;15.03;;
572;SDS011;271;51.114;13.780;2023-04-29T03:50:21;34.13;;;14.30;;
572;SDS011;271;51.114;13.780;2023-04-29T03:53:09;29.57;;;13.13;;
572;SDS011;271;51.114;13.780;2023-04-29T03:55:58;28.77;;;11.17;;
572;SDS011;271;51.114;13.780;2023-04-29T03:58:46;26.43;;;10.73;;
572;SDS011;271;51.114;13.780;2023-04-29T04:01:34;27.73;;;11.80;;
572;SDS011;271;51.114;13.780;2023-04-29T04:04:21;27.40;;;11.40;;
572;SDS011;271;51.114;13.780;2023-04-29T04:07:09;26.40;;;10.57;;
572;SDS011;271;51.114;13.780;2023-04-29T04:09:57;25.50;;;10.57;;
572;SDS011;271;51.114;13.780;2023-04-29T04:12:46;25.50;;;10.40;;
572;SDS011;271;51.114;13.780;2023-04-29T04:15:34;30.70;;;11.70;;
572;SDS011;271;51.114;13.780;2023-04-29T04:18:22;30.20;;;12.60;;
572;SDS011;271;51.114;13.780;2023-04-29T04:21:10;25.30;;;10.77;;
572;SDS011;271;51.114;13.780;2023-04-29T04:23:58;24.37;;;8.93;;
572;SDS011;271;51.114;13.780;2023-04-29T04:26:46;27.90;;;9.97;;
572;SDS011;271;51.114;13.780;2023-04-29T04:29:35;22.27;;;8.00;;
572;SDS011;271;51.114;13.780;2023-04-29T04:32:23;23.10;;;8.20;;
572;SDS011;271;51.114;13.780;2023-04-29T04:35:11;24.20;;;8.53;;
572;SDS011;271;51.114;13.780;2023-04-29T04:37:59;24.23;;;9.67;;
572;SDS011;271;51.114;13.780;2023-04-29T04:40:46;24.77;;;9.50;;
572;SDS011;271;51.114;13.780;2023-04-29T04:43:34;23.70;;;8.27;;
572;SDS011;271;51.114;13.780;2023-04-29T04:46:23;23.60;;;9.70;;
572;SDS011;271;51.114;13.780;2023-04-29T04:49:11;27.40;;;9.23;;
572;SDS011;271;51.114;13.780;2023-04-29T04:51:58;23.07;;;9.07;;
572;SDS011;271;51.114;13.780;2023-04-29T04:54:46;26.47;;;11.37;;
572;SDS011;271;51.114;13.780;2023-04-29T04:57:34;25.70;;;10.33;;
572;SDS011;271;51.114;13.780;2023-04-29T05:00:22;27.50;;;11.23;;
572;SDS011;271;51.114;13.780;2023-04-29T05:03:11;26.90;;;10.53;;
572;SDS011;271;51.114;13.780;2023-04-29T05:05:59;26.60;;;12.00;;
572;SDS011;271;51.114;13.780;2023-04-29T05:08:46;26.43;;;11.47;;
572;SDS011;271;51.114;13.780;2023-04-29T05:11:34;27.87;;;12.60;;
572;SDS011;271;51.114;13.780;2023-04-29T05:14:22;29.90;;;13.67;;
572;SDS011;271;51.114;13.780;2023-04-29T05:17:09;27.47;;;11.57;;
572;SDS011;271;51.114;13.780;2023-04-29T05:19:58;29.70;;;13.87;;
572;SDS011;271;51.114;13.780;2023-04-29T05:22:46;28.33;;;12.70;;
572;SDS011;271;51.114;13.780;2023-04-29T05:25:34;27.10;;;12.97;;
572;SDS011;271;51.114;13.780;2023-04-29T05:28:21;30.80;;;14.70;;
572;SDS011;271;51.114;13.780;2023-04-29T05:31:09;30.90;;;13.87;;
572;SDS011;271;51.114;13.780;2023-04-29T05:33:57;33.70;;;15.20;;
572;SDS011;271;51.114;13.780;2023-04-29T05:36:46;31.07;;;15.20;;
572;SDS011;271;51.114;13.780;2023-04-29T05:39:33;32.03;;;14.43;;
572;SDS011;271;51.114;13.780;2023-04-29T05:42:21;35.47;;;15.40;;
572;SDS011;271;51.114;13.780;2023-04-29T05:45:09;29.70;;;14.47;;
572;SDS011;271;51.114;13.780;2023-04-29T05:47:57;32.90;;;16.33;;
572;SDS011;271;51.114;13.780;2023-04-29T05:50:45;35.07;;;16.53;;
572;SDS011;271;51.114;13.780;2023-04-29T05:53:35;29.87;;;14.17;;
572;SDS011;271;51.114;13.780;2023-04-29T05:56:23;34.50;;;15.23;;
572;SDS011;271;51.114;13.780;2023-04-29T05:59:11;30.50;;;15.20;;
572;SDS011;271;51.114;13.780;2023-04-29T06:01:59;31.90;;;16.67;;
572;SDS011;271;51.114;13.780;2023-04-29T06:04:47;32.43;;;16.60;;
572;SDS011;271;51.114;13.780;2023-04-29T06:07:34;29.60;;;14.97;;
572;SDS011;271;51.114;13.780;2023-04-29T06:10:23;31.73;;;14.60;;
572;SDS011;271;51.114;13.780;2023-04-29T06:13:11;27.70;;;12.23;;
572;SDS011;271;51.114;13.780;2023-04-29T06:15:59;28.97;;;13.77;;
572;SDS011;271;51.114;13.780;2023-04-29T06:18:47;27.77;;;12.83;;
572;SDS011;271;51.114;13.780;2023-04-29T06:21:35;29.07;;;13.03;;
572;SDS011;271;51.114;13.780;2023-04-29T06:24:22;31.03;;;14.30;;
572;SDS011;271;51.114;13.780;2023-04-29T06:27:11;28.90;;;12.57;;
572;SDS011;271;51.114;13.780;2023-04-29T06:29:59;26.70;;;12.50;;
572;SDS011;271;51.114;13.780;2023-04-29T06:32:47;29.57;;;13.57;;
572;SDS011;271;51.114;13.780;2023-04-29T06:35:37;28.80;;;12.57;;
572;SDS011;271;51.114;13.780;2023-04-29T06:38:25;30.60;;;13.33;;
572;SDS011;271;51.114;13.780;2023-04-29T06:41:13;27.00;;;12.90;;
572;SDS011;271;51.114;13.780;2023-04-29T06:44:02;28.70;;;13.27;;
572;SDS011;271;51.114;13.780;2023-04-29T06:46:50;29.83;;;12.63;;
572;SDS011;271;51.114;13.780;2023-04-29T06:49:37;29.27;;;13.73;;
572;SDS011;271;51.114;13.780;2023-04-29T06:52:25;29.93;;;13.73;;
572;SDS011;271;51.114;13.780;2023-04-29T06:55:13;28.90;;;12.57;;
572;SDS011;271;51.114;13.780;2023-04-29T06:58:00;29.97;;;12.77;;
572;SDS011;271;51.114;13.780;2023-04-29T07:00:50;30.20;;;13.37;;
572;SDS011;271;51.114;13.780;2023-04-29T07:03:38;30.17;;;13.77;;
572;SDS011;271;51.114;13.780;2023-04-29T07:06:26;29.30;;;12.60;;
572;SDS011;271;51.114;13.780;2023-04-29T07:09:14;31.40;;;13.47;;
572;SDS011;271;51.114;13.780;2023-04-29T07:12:02;31.87;;;13.90;;
572;SDS011;271;51.114;13.780;2023-04-29T07:14:50;32.70;;;14.97;;
572;SDS011;271;51.114;13.780;2023-04-29T07:17:39;30.20;;;13.57;;
572;SDS011;271;51.114;13.780;2023-04-29T07:20:27;32.83;;;14.13;;
572;SDS011;271;51.114;13.780;2023-04-29T07:23:14;31.07;;;13.90;;
572;SDS011;271;51.114;13.780;2023-04-29T07:26:07;31.13;;;13.87;;
572;SDS011;271;51.114;13.780;2023-04-29T07:28:56;32.90;;;14.40;;
572;SDS011;271;51.114;13.780;2023-04-29T07:31:44;30.00;;;14.10;;
572;SDS011;271;51.114;13.780;2023-04-29T07:34:33;32.13;;;14.83;;
572;SDS011;271;51.114;13.780;2023-04-29T07:37:21;29.73;;;13.00;;
572;SDS011;271;51.114;13.780;2023-04-29T07:40:10;32.60;;;16.70;;
572;SDS011;271;51.114;13.780;2023-04-29T07:42:58;34.83;;;15.47;;
572;SDS011;271;51.114;13.780;2023-04-29T07:45:49;31.00;;;14.00;;
572;SDS011;271;51.114;13.780;2023-04-29T07:48:37;30.97;;;13.77;;
572;SDS011;271;51.114;13.780;2023-04-29T07:51:26;29.23;;;13.40;;
572;SDS011;271;51.114;13.780;2023-04-29T07:54:14;30.10;;;13.97;;
572;SDS011;271;51.114;13.780;2023-04-29T07:57:04;33.00;;;14.00;;
572;SDS011;271;51.114;13.780;2023-04-29T07:59:52;29.27;;;13.70;;
572;SDS011;271;51.114;13.780;2023-04-29T08:02:40;30.30;;;11.90;;
572;SDS011;271;51.114;13.780;2023-04-29T08:05:28;26.70;;;11.50;;
572;SDS011;271;51.114;13.780;2023-04-29T08:08:18;26.63;;;10.87;;
572;SDS011;271;51.114;13.780;2023-04-29T08:11:05;24.80;;;10.03;;
572;SDS011;271;51.114;13.780;2023-04-29T08:13:54;25.27;;;9.53;;
572;SDS011;271;51.114;13.780;2023-04-29T08:16:44;26.23;;;11.27;;
572;SDS011;271;51.114;13.780;2023-04-29T08:19:31;26.13;;;10.63;;
572;SDS011;271;51.114;13.780;2023-04-29T08:22:19;26.40;;;11.43;;
572;SDS011;271;51.114;13.780;2023-04-29T08:25:09;27.53;;;11.30;;
572;SDS011;271;51.114;13.780;2023-04-29T08:27:57;25.63;;;10.97;;
572;SDS011;271;51.114;13.780;2023-04-29T08:30:45;25.10;;;10.17;;
572;SDS011;271;51.114;13.780;2023-04-29T08:33:33;24.53;;;8.90;;
572;SDS011;271;51.114;13.780;2023-04-29T08:36:20;23.63;;;8.10;;
572;SDS011;271;51.114;13.780;2023-04-29T08:39:08;23.67;;;7.33;;
572;SDS011;271;51.114;13.780;2023-04-29T08:41:57;22.13;;;7.87;;
572;SDS011;271;51.114;13.780;2023-04-29T08:44:45;22.90;;;8.23;;
572;SDS011;271;51.114;13.780;2023-04-29T08:47:33;24.20;;;10.10;;
572;SDS011;271;51.114;13.780;2023-04-29T08:50:22;23.57;;;8.70;;
572;SDS011;271;51.114;13.780;2023-04-29T08:53:11;23.40;;;8.67;;
572;SDS011;271;51.114;13.780;2023-04-29T08:56:02;21.67;;;7.93;;
572;SDS011;271;51.114;13.780;2023-04-29T08:58:59;22.57;;;8.80;;
572;SDS011;271;51.114;13.780;2023-04-29T09:01:49;24.47;;;9.17;;
572;SDS011;271;51.114;13.780;2023-04-29T09:04:52;23.30;;;8.97;;
572;SDS011;271;51.114;13.780;2023-04-29T09:07:47;22.63;;;8.13;;
572;SDS011;271;51.114;13.780;2023-04-29T09:10:36;22.13;;;8.60;;
572;SDS011;271;51.114;13.780;2023-04-29T09:13:24;25.70;;;8.80;;
572;SDS011;271;51.114;13.780;2023-04-29T09:16:15;24.10;;;8.70;;
572;SDS011;271;51.114;13.780;2023-04-29T09:19:03;21.80;;;6.80;;
572;SDS011;271;51.114;13.780;2023-04-29T09:21:52;22.20;;;7.73;;
572;SDS011;271;51.114;13.780;2023-04-29T09:24:41;22.07;;;7.00;;
572;SDS011;271;51.114;13.780;2023-04-29T09:27:30;20.23;;;6.00;;
572;SDS011;271;51.114;13.780;2023-04-29T09:30:19;22.00;;;7.40;;
572;SDS011;271;51.114;13.780;2023-04-29T09:33:08;23.57;;;7.80;;
572;SDS011;271;51.114;13.780;2023-04-29T09:35:57;21.70;;;7.00;;
572;SDS011;271;51.114;13.780;2023-04-29T09:38:52;24.23;;;7.53;;
572;SDS011;271;51.114;13.780;2023-04-29T09:41:41;22.67;;;7.80;;
572;SDS011;271;51.114;13.780;2023-04-29T09:44:45;23.63;;;8.47;;
572;SDS011;271;51.114;13.780;2023-04-29T09:47:41;22.40;;;7.00;;
572;SDS011;271;51.114;13.780;2023-04-29T09:50:31;24.13;;;7.83;;
572;SDS011;271;51.114;13.780;2023-04-29T09:53:26;20.60;;;6.20;;
572;SDS011;271;51.114;13.780;2023-04-29T09:56:16;21.00;;;6.50;;
572;SDS011;271;51.114;13.780;2023-04-29T09:59:06;22.80;;;7.70;;
572;SDS011;271;51.114;13.780;2023-04-29T10:01:55;22.20;;;7.40;;
572;SDS011;271;51.114;13.780;2023-04-29T10:04:44;22.90;;;7.67;;
572;SDS011;271;51.114;13.780;2023-04-29T10:07:34;24.40;;;8.83;;
572;SDS011;271;51.114;13.780;2023-04-29T10:10:28;25.83;;;9.63;;
572;SDS011;271;51.114;13.780;2023-04-29T10:13:17;28.70;;;10.13;;
572;SDS011;271;51.114;13.780;2023-04-29T10:16:07;26.90;;;10.10;;
572;SDS011;271;51.114;13.780;2023-04-29T10:19:02;25.97;;;10.53;;
572;SDS011;271;51.114;13.780;2023-04-29T10:22:04;23.93;;;9.20;;
572;SDS011;271;51.114;13.780;2023-04-29T10:25:24;24.90;;;9.77;;
572;SDS011;271;51.114;13.780;2023-04-29T10:28:13;24.90;;;11.33;;
572;SDS011;271;51.114;13.780;2023-04-29T10:31:02;28.03;;;11.23;;
572;SDS011;271;51.114;13.780;2023-04-29T10:33:54;24.80;;;9.97;;
572;SDS011;271;51.114;13.780;2023-04-29T10:36:43;25.53;;;10.97;;
572;SDS011;271;51.114;13.780;2023-04-29T10:39:35;25.63;;;11.67;;
572;SDS011;271;51.114;13.780;2023-04-29T10:42:33;24.83;;;10.77;;
572;SDS011;271;51.114;13.780;2023-04-29T10:45:39;24.27;;;9.90;;
572;SDS011;271;51.114;13.780;2023-04-29T10:48:30;24.63;;;11.67;;
572;SDS011;271;51.114;13.780;2023-04-29T10:51:27;25.37;;;11.73;;
572;SDS011;271;51.114;13.780;2023-04-29T10:54:17;25.77;;;11.90;;
572;SDS011;271;51.114;13.780;2023-04-29T10:57:12;24.43;;;9.70;;
572;SDS011;271;51.114;13.780;2023-04-29T11:00:23;24.50;;;9.80;;
572;SDS011;271;51.114;13.780;2023-04-29T11:03:13;24.47;;;9.47;;
572;SDS011;271;51.114;13.780;2023-04-29T11:06:44;23.83;;;10.80;;
572;SDS011;271;51.114;13.780;2023-04-29T11:09:34;24.50;;;10.80;;
572;SDS011;271;51.114;13.780;2023-04-29T11:12:24;22.50;;;9.47;;
572;SDS011;271;51.114;13.780;2023-04-29T11:15:12;23.03;;;8.97;;
572;SDS011;271;51.114;13.780;2023-04-29T11:18:22;20.90;;;7.97;;
572;SDS011;271;51.114;13.780;2023-04-29T11:21:12;20.93;;;7.77;;
572;SDS011;271;51.114;13.780;2023-04-29T11:24:00;21.90;;;9.20;;
572;SDS011;271;51.114;13.780;2023-04-29T11:26:51;21.00;;;7.60;;
572;SDS011;271;51.114;13.780;2023-04-29T11:29:38;21.60;;;7.90;;
572;SDS011;271;51.114;13.780;2023-04-29T11:32:29;21.87;;;8.70;;
572;SDS011;271;51.114;13.780;2023-04-29T11:35:18;21.70;;;7.83;;
572;SDS011;271;51.114;13.780;2023-04-29T11:38:06;21.90;;;8.27;;
572;SDS011;271;51.114;13.780;2023-04-29T11:40:55;20.93;;;7.67;;
572;SDS011;271;51.114;13.780;2023-04-29T11:43:45;21.00;;;8.80;;
572;SDS011;271;51.114;13.780;2023-04-29T11:46:32;19.70;;;7.40;;
572;SDS011;271;51.114;13.780;2023-04-29T11:49:22;20.03;;;7.27;;
572;SDS011;271;51.114;13.780;2023-04-29T11:52:16;18.33;;;5.50;;
572;SDS011;271;51.114;13.780;2023-04-29T11:55:04;18.77;;;5.70;;
572;SDS011;271;51.114;13.780;2023-04-29T11:57:54;18.90;;;5.77;;
572;SDS011;271;51.114;13.780;2023-04-29T12:00:42;18.50;;;5.37;;
572;SDS011;271;51.114;13.780;2023-04-29T12:03:31;19.83;;;5.93;;
572;SDS011;271;51.114;13.780;2023-04-29T12:06:20;19.47;;;5.23;;
572;SDS011;271;51.114;13.780;2023-04-29T12:09:08;20.43;;;5.83;;
572;SDS011;271;51.114;13.780;2023-04-29T12:11:56;20.70;;;6.30;;
572;SDS011;271;51.114;13.780;2023-04-29T12:14:44;19.93;;;5.37;;
572;SDS011;271;51.114;13.780;2023-04-29T12:17:33;20.80;;;5.87;;
572;SDS011;271;51.114;13.780;2023-04-29T12:20:20;19.40;;;5.20;;
572;SDS011;271;51.114;13.780;2023-04-29T12:23:13;18.43;;;5.27;;
572;SDS011;271;51.114;13.780;2023-04-29T12:26:03;20.37;;;5.87;;
572;SDS011;271;51.114;13.780;2023-04-29T12:28:52;19.43;;;6.20;;
572;SDS011;271;51.114;13.780;2023-04-29T12:31:41;21.27;;;7.93;;
572;SDS011;271;51.114;13.780;2023-04-29T12:34:29;20.77;;;7.50;;
572;SDS011;271;51.114;13.780;2023-04-29T12:37:18;20.43;;;7.50;;
572;SDS011;271;51.114;13.780;2023-04-29T12:40:12;20.83;;;8.13;;
572;SDS011;271;51.114;13.780;2023-04-29T12:43:05;21.73;;;7.90;;
572;SDS011;271;51.114;13.780;2023-04-29T12:46:15;21.27;;;7.17;;
572;SDS011;271;51.114;13.780;2023-04-29T12:49:04;20.30;;;6.90;;
572;SDS011;271;51.114;13.780;2023-04-29T12:51:54;19.80;;;7.43;;
572;SDS011;271;51.114;13.780;2023-04-29T12:54:44;21.25;;;7.82;;
572;SDS011;271;51.114;13.780;2023-04-29T13:04:47;20.57;;;7.30;;
572;SDS011;271;51.114;13.780;2023-04-29T13:18:53;23.63;;;9.23;;
572;SDS011;271;51.114;13.780;2023-04-29T13:21:41;25.03;;;10.20;;
572;SDS011;271;51.114;13.780;2023-04-29T13:24:31;22.20;;;9.40;;
572;SDS011;271;51.114;13.780;2023-04-29T13:27:20;23.07;;;9.20;;
572;SDS011;271;51.114;13.780;2023-04-29T13:30:08;26.77;;;11.93;;
572;SDS011;271;51.114;13.780;2023-04-29T13:33:04;24.67;;;9.90;;
572;SDS011;271;51.114;13.780;2023-04-29T13:35:53;29.90;;;12.70;;
572;SDS011;271;51.114;13.780;2023-04-29T13:38:41;31.33;;;14.37;;
572;SDS011;271;51.114;13.780;2023-04-29T13:41:29;30.17;;;13.97;;
572;SDS011;271;51.114;13.780;2023-04-29T13:44:17;27.90;;;12.20;;
572;SDS011;271;51.114;13.780;2023-04-29T13:47:09;28.57;;;12.10;;
572;SDS011;271;51.114;13.780;2023-04-29T14:28:15;32.20;;;14.30;;
572;SDS011;271;51.114;13.780;2023-04-29T14:31:02;30.10;;;14.67;;
572;SDS011;271;51.114;13.780;2023-04-29T14:33:50;30.67;;;14.77;;
572;SDS011;271;51.114;13.780;2023-04-29T14:36:38;29.60;;;13.70;;
572;SDS011;271;51.114;13.780;2023-04-29T14:39:26;29.60;;;14.30;;
572;SDS011;271;51.114;13.780;2023-04-29T14:42:15;30.43;;;15.03;;
572;SDS011;271;51.114;13.780;2023-04-29T14:45:03;30.17;;;13.87;;
572;SDS011;271;51.114;13.780;2023-04-29T14:47:54;31.87;;;15.70;;
572;SDS011;271;51.114;13.780;2023-04-29T14:50:41;33.70;;;15.70;;
572;SDS011;271;51.114;13.780;2023-04-29T14:53:29;31.40;;;14.67;;
572;SDS011;271;51.114;13.780;2023-04-29T14:56:19;31.90;;;15.07;;
572;SDS011;271;51.114;13.780;2023-04-29T14:59:08;29.17;;;13.90;;
572;SDS011;271;51.114;13.780;2023-04-29T15:01:56;30.63;;;14.10;;
572;SDS011;271;51.114;13.780;2023-04-29T15:04:44;32.63;;;15.93;;
572;SDS011;271;51.114;13.780;2023-04-29T15:07:34;29.87;;;14.00;;
572;SDS011;271;51.114;13.780;2023-04-29T15:10:22;29.57;;;13.27;;
572;SDS011;271;51.114;13.780;2023-04-29T15:13:13;30.60;;;13.93;;
572;SDS011;271;51.114;13.780;2023-04-29T15:16:02;28.73;;;14.83;;
572;SDS011;271;51.114;13.780;2023-04-29T15:18:52;30.13;;;15.10;;
572;SDS011;271;51.114;13.780;2023-04-29T15:21:39;27.53;;;13.93;;
572;SDS011;271;51.114;13.780;2023-04-29T15:24:27;29.07;;;15.10;;
572;SDS011;271;51.114;13.780;2023-04-29T15:27:15;30.47;;;14.70;;
572;SDS011;271;51.114;13.780;2023-04-29T15:30:06;30.67;;;14.00;;
572;SDS011;271;51.114;13.780;2023-04-29T15:32:55;32.20;;;17.53;;
572;SDS011;271;51.114;13.780;2023-04-29T15:35:43;31.83;;;16.33;;
572;SDS011;271;51.114;13.780;2023-04-29T15:38:31;31.60;;;16.10;;
572;SDS011;271;51.114;13.780;2023-04-29T15:41:21;30.37;;;15.33;;
572;SDS011;271;51.114;13.780;2023-04-29T15:44:10;30.37;;;15.93;;
572;SDS011;271;51.114;13.780;2023-04-29T15:47:01;30.83;;;14.63;;
572;SDS011;271;51.114;13.780;2023-04-29T15:49:50;30.67;;;15.20;;
572;SDS011;271;51.114;13.780;2023-04-29T15:52:40;32.13;;;15.70;;
572;SDS011;271;51.114;13.780;2023-04-29T15:55:29;29.57;;;14.00;;
572;SDS011;271;51.114;13.780;2023-04-29T15:58:19;30.60;;;15.03;;
572;SDS011;271;51.114;13.780;2023-04-29T16:01:07;29.13;;;14.23;;
572;SDS011;271;51.114;13.780;2023-04-29T16:03:57;27.77;;;13.40;;
572;SDS011;271;51.114;13.780;2023-04-29T16:06:46;32.03;;;14.87;;
572;SDS011;271;51.114;13.780;2023-04-29T16:09:35;29.57;;;15.30;;
572;SDS011;271;51.114;13.780;2023-04-29T16:12:23;28.57;;;15.20;;
572;SDS011;271;51.114;13.780;2023-04-29T16:16:29;30.77;;;15.20;;
572;SDS011;271;51.114;13.780;2023-04-29T16:20:28;29.13;;;14.17;;
572;SDS011;271;51.114;13.780;2023-04-29T16:27:58;28.43;;;14.57;;
572;SDS011;271;51.114;13.780;2023-04-29T16:31:24;29.60;;;14.27;;
572;SDS011;271;51.114;13.780;2023-04-29T16:53:54;28.73;;;14.27;;
572;SDS011;271;51.114;13.780;2023-04-29T17:00:25;27.43;;;13.47;;
572;SDS011;271;51.114;13.780;2023-04-29T17:03:20;29.10;;;12.57;;
572;SDS011;271;51.114;13.780;2023-04-29T17:10:03;28.00;;;13.40;;
572;SDS011;271;51.114;13.780;2023-04-29T17:12:52;27.97;;;13.63;;
572;SDS011;271;51.114;13.780;2023-04-29T17:15:40;26.43;;;12.10;;
572;SDS011;271;51.114;13.780;2023-04-29T17:18:27;25.60;;;12.77;;
572;SDS011;271;51.114;13.780;2023-04-29T17:21:15;26.50;;;12.97;;
572;SDS011;271;51.114;13.780;2023-04-29T17:24:03;28.83;;;14.60;;
572;SDS011;271;51.114;13.780;2023-04-29T17:26:52;28.67;;;11.87;;
572;SDS011;271;51.114;13.780;2023-04-29T17:29:40;29.20;;;12.17;;
572;SDS011;271;51.114;13.780;2023-04-29T17:32:28;26.30;;;12.43;;
572;SDS011;271;51.114;13.780;2023-04-29T17:35:16;25.50;;;12.33;;
572;SDS011;271;51.114;13.780;2023-04-29T17:38:03;28.13;;;12.87;;
572;SDS011;271;51.114;13.780;2023-04-29T17:40:51;26.73;;;11.70;;
572;SDS011;271;51.114;13.780;2023-04-29T17:43:40;26.73;;;11.27;;
572;SDS011;271;51.114;13.780;2023-04-29T17:46:28;28.00;;;13.30;;
572;SDS011;271;51.114;13.780;2023-04-29T17:49:16;28.50;;;13.57;;
572;SDS011;271;51.114;13.780;2023-04-29T17:52:04;25.60;;;12.57;;
572;SDS011;271;51.114;13.780;2023-04-29T17:54:51;29.13;;;12.70;;
572;SDS011;271;51.114;13.780;2023-04-29T17:57:40;26.60;;;12.10;;
572;SDS011;271;51.114;13.780;2023-04-29T18:00:29;28.93;;;13.80;;
572;SDS011;271;51.114;13.780;2023-04-29T18:03:17;28.17;;;14.10;;
572;SDS011;271;51.114;13.780;2023-04-29T18:06:04;26.53;;;12.80;;
572;SDS011;271;51.114;13.780;2023-04-29T18:08:55;27.37;;;13.23;;
572;SDS011;271;51.114;13.780;2023-04-29T18:11:43;25.53;;;12.90;;
572;SDS011;271;51.114;13.780;2023-04-29T18:14:33;27.17;;;13.57;;
572;SDS011;271;51.114;13.780;2023-04-29T18:17:25;26.40;;;12.07;;
572;SDS011;271;51.114;13.780;2023-04-29T18:20:13;27.23;;;12.23;;
572;SDS011;271;51.114;13.780;2023-04-29T18:23:00;23.87;;;12.10;;
572;SDS011;271;51.114;13.780;2023-04-29T18:25:54;25.63;;;12.57;;
572;SDS011;271;51.114;13.780;2023-04-29T18:28:43;25.70;;;11.30;;
572;SDS011;271;51.114;13.780;2023-04-29T18:31:31;27.60;;;12.80;;
572;SDS011;271;51.114;13.780;2023-04-29T18:34:20;24.80;;;11.67;;
572;SDS011;271;51.114;13.780;2023-04-29T18:37:07;29.67;;;15.27;;
572;SDS011;271;51.114;13.780;2023-04-29T18:39:55;27.70;;;12.87;;
572;SDS011;271;51.114;13.780;2023-04-29T18:42:43;25.90;;;12.20;;
572;SDS011;271;51.114;13.780;2023-04-29T18:45:31;26.47;;;11.77;;
572;SDS011;271;51.114;13.780;2023-04-29T18:48:19;26.17;;;12.07;;
572;SDS011;271;51.114;13.780;2023-04-29T18:51:08;24.90;;;11.23;;
572;SDS011;271;51.114;13.780;2023-04-29T18:53:56;24.67;;;10.33;;